Pagrindinis puslapis
METAR-TAF:

METAR-TAF

Oro uostai :

Port Heiden, Aliaska, Jungtinės Amerikos Valstijos

platuma: 56-57N, ilguma: 158-38W, Aukštis: 29 m

Dabartinis oras

Ataskaita buvo paskelbta 15 minutes, ne 21:04 UTC
Vėjas 12 kt iš Pietvakarių
Temperatūra 9°C
Drėgmė 87%
Slėgis 1009 hPa
Matomumas: 16.1 km
Su prošvaistėmis ne aukštis 1200 ft
Su prošvaistėmis ne aukštis 2000 ft
Apsiniaukę ne aukštis 3200 ft
lietus

METAR: PAPH 212104Z AUTO 22012KT 10SM -RA BKN012 BKN020 OVC032 09/07 A2979 RMK AO2 P0001

Laikas: 13:19 (21:19 UTC)


TAF: trūkstamas

Orai ataskaitas ir orų prognozės (METAR, TAF).

turimą stotys yra geltonos ir raudonos taškus žemėlapyje.

Perkelti pele per norėdami pamatyti stoties vardą.

Tada spustelėkite, norėdami matyti oro stebėjimo ir prognozės.

Norėdami pakeisti žemėlapį: spustelėkite ant žalios mygtukų su juodo kryžiaus žemyn,; žalią mygtuką su brūkšneliu, jei norite nutolinti; arba žalių rodyklių gretimoms žemėlapius.


METAR-TAF: